Time;durP1;ratioP1;P1;durP2;ratioP2;P2;SDS_P1;SDS_P2;PMS_P1;PMS_P2;Temp;Humidity;BMP_temperature;BMP_pressure;BME280_temperature;BME280_humidity;BME280_pressure;Samples;Min_cycle;Max_cycle;Signal;HPM_P1;HPM_P2
2022/08/23 00:00:37;;;;;;;10.05;8.00;;;17.10;99.90;;;;;;2124036;27;20019;-74
2022/08/23 00:01:41;;;;;;;8.07;7.28;;;17.10;99.90;;;;;;2122906;27;20047;-75
2022/08/23 00:02:42;;;;;;;9.30;7.60;;;17.10;99.90;;;;;;2111102;27;20017;-75
2022/08/23 00:03:43;;;;;;;9.10;8.10;;;17.10;99.90;;;;;;2120559;27;20027;-75
2022/08/23 00:04:45;;;;;;;10.30;8.38;;;17.10;99.90;;;;;;2124079;27;20512;-74
2022/08/23 00:05:46;;;;;;;9.65;7.45;;;17.10;99.90;;;;;;2115960;28;20030;-75
2022/08/23 00:06:48;;;;;;;10.30;7.70;;;17.00;99.90;;;;;;2113718;28;20401;-74
2022/08/23 00:07:49;;;;;;;9.55;7.50;;;17.00;99.90;;;;;;2113943;27;20036;-74
2022/08/23 00:08:51;;;;;;;8.23;7.28;;;17.00;99.90;;;;;;2123445;27;20057;-77
2022/08/23 00:09:52;;;;;;;10.50;7.63;;;17.00;99.90;;;;;;2117337;28;20890;-76
2022/08/23 00:10:52;;;;;;;8.20;7.40;;;17.00;99.90;;;;;;2114060;28;20120;-74
2022/08/23 00:12:06;;;;;;;9.60;8.02;;;17.00;99.90;;;;;;2107053;28;20127;-74
2022/08/23 00:13:13;;;;;;;9.05;8.15;;;17.00;99.90;;;;;;2109426;28;20069;-75
2022/08/23 00:14:37;;;;;;;9.73;7.75;;;17.00;99.90;;;;;;2110868;27;20054;-74
2022/08/23 00:15:37;;;;;;;9.02;7.43;;;17.00;99.90;;;;;;2118693;27;20034;-75
2022/08/23 00:16:40;;;;;;;8.50;7.53;;;17.00;99.90;;;;;;2110241;28;20020;-75
2022/08/23 00:17:43;;;;;;;11.05;8.88;;;17.00;99.90;;;;;;2117542;27;20054;-75
2022/08/23 00:18:44;;;;;;;12.27;9.00;;;17.00;99.90;;;;;;2105958;28;20731;-74
2022/08/23 00:19:46;;;;;;;9.75;8.40;;;17.00;99.90;;;;;;2115132;28;20027;-74
2022/08/23 00:20:48;;;;;;;10.38;8.73;;;17.00;99.90;;;;;;2106814;28;20019;-74
2022/08/23 00:21:51;;;;;;;8.93;7.80;;;17.00;99.90;;;;;;2114836;28;20027;-74
2022/08/23 00:22:52;;;;;;;8.43;7.57;;;17.00;99.90;;;;;;2107934;28;20028;-75
2022/08/23 00:23:52;;;;;;;8.27;7.40;;;17.00;99.90;;;;;;2106526;28;20034;-75
2022/08/23 00:24:53;;;;;;;9.70;8.13;;;17.00;99.90;;;;;;2121296;27;20784;-74
2022/08/23 00:25:54;;;;;;;9.68;7.72;;;17.00;99.90;;;;;;2122593;27;20050;-75
2022/08/23 00:27:08;;;;;;;9.00;7.32;;;17.00;99.90;;;;;;2123593;27;20023;-76
2022/08/23 00:28:09;;;;;;;11.70;8.60;;;17.10;99.90;;;;;;2117976;27;20111;-75
2022/08/23 00:29:11;;;;;;;13.88;9.32;;;17.00;99.90;;;;;;2125623;27;20076;-72
2022/08/23 00:30:13;;;;;;;12.07;9.20;;;17.00;99.90;;;;;;2124726;27;20027;-75
2022/08/23 00:31:17;;;;;;;10.40;8.20;;;17.00;99.90;;;;;;2111625;28;20020;-75
2022/08/23 00:32:27;;;;;;;11.23;8.70;;;17.00;99.90;;;;;;2124334;27;20023;-73
2022/08/23 00:33:31;;;;;;;9.70;7.90;;;17.00;99.90;;;;;;2114300;28;20027;-74
2022/08/23 00:34:38;;;;;;;8.43;7.50;;;17.00;99.90;;;;;;2117615;28;20035;-74
2022/08/23 00:35:40;;;;;;;10.25;7.53;;;17.00;99.90;;;;;;2118818;27;20031;-74
2022/08/23 00:36:43;;;;;;;8.25;7.30;;;17.00;99.90;;;;;;2122261;27;20011;-74
2022/08/23 00:37:45;;;;;;;10.30;8.00;;;17.00;99.90;;;;;;2126332;27;20030;-75
2022/08/23 00:38:46;;;;;;;9.10;7.90;;;17.00;99.90;;;;;;2117423;28;20024;-74
2022/08/23 00:39:47;;;;;;;10.02;8.52;;;17.00;99.90;;;;;;2124884;27;20019;-74
2022/08/23 00:40:52;;;;;;;10.40;8.05;;;17.00;99.90;;;;;;2110867;28;20673;-75
2022/08/23 00:42:01;;;;;;;9.82;8.18;;;17.00;99.90;;;;;;2110009;27;20035;-74
2022/08/23 00:47:42;;;;;;;11.30;9.32;;;16.90;99.90;;;;;;2121161;27;20019;-75
2022/08/23 00:48:45;;;;;;;12.63;9.43;;;16.80;99.90;;;;;;2125987;27;20023;-75
2022/08/23 00:49:53;;;;;;;9.45;8.48;;;16.80;99.90;;;;;;2127277;27;20027;-74
2022/08/23 00:51:09;;;;;;;10.02;8.57;;;16.80;99.90;;;;;;2117269;27;20031;-76
2022/08/23 00:52:27;;;;;;;9.80;8.27;;;16.80;99.90;;;;;;2116874;27;20394;-74
2022/08/23 00:53:32;;;;;;;11.55;8.90;;;16.90;99.90;;;;;;2113141;27;20115;-75
2022/08/23 00:54:36;;;;;;;10.75;8.45;;;16.90;99.90;;;;;;2111112;27;20035;-74
2022/08/23 00:55:41;;;;;;;10.95;8.45;;;16.90;99.90;;;;;;2115073;27;20036;-76
2022/08/23 00:56:43;;;;;;;11.60;8.50;;;16.90;99.90;;;;;;2117722;27;20020;-75
2022/08/23 00:57:46;;;;;;;9.35;8.25;;;16.90;99.90;;;;;;2118023;28;20024;-75
2022/08/23 00:58:48;;;;;;;9.80;8.10;;;16.90;99.90;;;;;;2117017;28;20024;-76
2022/08/23 00:59:52;;;;;;;10.00;8.70;;;16.90;99.90;;;;;;2118974;27;20019;-75
2022/08/23 01:00:54;;;;;;;11.38;9.65;;;16.90;99.90;;;;;;2109307;28;20023;-75
2022/08/23 01:01:59;;;;;;;12.50;10.48;;;16.90;99.90;;;;;;2111752;28;20103;-75
2022/08/23 01:03:03;;;;;;;10.63;9.20;;;16.90;99.90;;;;;;2127404;27;20023;-74
2022/08/23 01:04:07;;;;;;;9.45;8.45;;;16.90;99.90;;;;;;2110970;28;20159;-74
2022/08/23 01:05:15;;;;;;;10.00;8.88;;;16.80;99.90;;;;;;2111000;28;20500;-75
2022/08/23 01:06:25;;;;;;;12.18;9.75;;;16.90;99.90;;;;;;2117820;27;20032;-76
2022/08/23 01:07:35;;;;;;;11.57;10.27;;;16.90;99.90;;;;;;2124532;27;20023;-74
2022/08/23 01:08:38;;;;;;;12.05;10.02;;;16.90;99.90;;;;;;2122856;27;20038;-75
2022/08/23 01:09:42;;;;;;;12.77;10.32;;;16.80;99.90;;;;;;2122656;27;20588;-75
2022/08/23 01:10:51;;;;;;;10.43;9.35;;;16.80;99.90;;;;;;2116883;27;20099;-75
2022/08/23 01:12:36;;;;;;;10.15;9.00;;;16.80;99.90;;;;;;2113904;28;20024;-75
2022/08/23 01:13:52;;;;;;;11.57;9.98;;;16.80;99.90;;;;;;2111942;28;20875;-75
2022/08/23 01:14:59;;;;;;;10.27;9.20;;;16.80;99.90;;;;;;2097888;28;20029;-77
2022/08/23 01:16:09;;;;;;;11.43;9.38;;;16.80;99.90;;;;;;2100445;28;20032;-74
2022/08/23 01:17:19;;;;;;;11.32;9.10;;;16.80;99.90;;;;;;2102611;27;20118;-76
2022/08/23 01:18:23;;;;;;;10.07;9.00;;;16.80;99.90;;;;;;2119456;27;20043;-76
2022/08/23 01:19:34;;;;;;;10.88;9.05;;;16.80;99.90;;;;;;2107963;28;20020;-75
2022/08/23 01:21:12;;;;;;;9.35;8.35;;;16.80;99.90;;;;;;2112217;28;20028;-75
2022/08/23 01:22:33;;;;;;;11.05;8.50;;;16.80;99.90;;;;;;2120004;28;20032;-75
2022/08/23 01:23:44;;;;;;;9.63;8.63;;;16.80;99.90;;;;;;2110067;28;20024;-75
2022/08/23 01:24:49;;;;;;;9.55;8.00;;;16.80;99.90;;;;;;2113335;28;20140;-73
2022/08/23 01:25:50;;;;;;;9.23;8.32;;;16.80;99.90;;;;;;2117757;28;20061;-74
2022/08/23 01:26:54;;;;;;;9.45;8.55;;;16.80;99.90;;;;;;2107475;28;20024;-75
2022/08/23 01:27:56;;;;;;;9.98;8.98;;;16.80;99.90;;;;;;2102220;28;20542;-76
2022/08/23 01:28:57;;;;;;;11.50;9.30;;;16.80;99.90;;;;;;2110761;28;20085;-75
2022/08/23 01:29:58;;;;;;;9.10;8.20;;;16.80;99.90;;;;;;2124999;27;20118;-76
2022/08/23 01:30:59;;;;;;;10.07;8.55;;;16.80;99.90;;;;;;2114683;28;20024;-74
2022/08/23 01:32:00;;;;;;;10.35;8.35;;;16.80;99.90;;;;;;2123036;27;20059;-73
2022/08/23 01:33:05;;;;;;;9.02;7.90;;;16.80;99.90;;;;;;2116109;27;20029;-76
2022/08/23 01:34:10;;;;;;;8.98;8.05;;;16.80;99.90;;;;;;2116376;28;20030;-76
2022/08/23 01:35:11;;;;;;;9.82;8.40;;;16.80;99.90;;;;;;2101627;28;20036;-75
2022/08/23 01:36:14;;;;;;;12.55;8.98;;;16.80;99.90;;;;;;2115401;28;20583;-75
2022/08/23 01:37:15;;;;;;;11.20;8.73;;;16.80;99.90;;;;;;2110925;28;20042;-74
2022/08/23 01:38:16;;;;;;;9.75;8.73;;;16.80;99.90;;;;;;2116379;28;20099;-75
2022/08/23 01:39:18;;;;;;;9.77;8.57;;;16.80;99.90;;;;;;2108663;28;20028;-75
2022/08/23 01:40:24;;;;;;;10.23;8.40;;;16.80;99.90;;;;;;2098705;28;20036;-76
2022/08/23 01:41:28;;;;;;;9.85;8.32;;;16.80;99.90;;;;;;2115056;27;20103;-75
2022/08/23 01:42:29;;;;;;;10.60;8.30;;;16.80;99.90;;;;;;2117633;28;20028;-76
2022/08/23 01:43:32;;;;;;;8.90;8.00;;;16.80;99.90;;;;;;2100881;28;20016;-76
2022/08/23 01:44:36;;;;;;;9.27;8.02;;;16.80;99.90;;;;;;2105112;28;20068;-77
2022/08/23 01:45:45;;;;;;;9.52;8.27;;;16.80;99.90;;;;;;2115306;28;20024;-74
2022/08/23 01:47:06;;;;;;;10.23;8.43;;;16.80;99.90;;;;;;2121909;27;20512;-75
2022/08/23 01:48:08;;;;;;;9.80;8.70;;;16.80;99.90;;;;;;2121075;28;20031;-75
2022/08/23 01:49:09;;;;;;;11.18;8.25;;;16.80;99.90;;;;;;2108861;28;20024;-75
2022/08/23 01:50:12;;;;;;;10.68;7.70;;;16.80;99.90;;;;;;2109186;28;20043;-74
2022/08/23 01:51:15;;;;;;;8.70;7.80;;;16.80;99.90;;;;;;2116228;27;20032;-74
2022/08/23 01:52:18;;;;;;;9.05;7.60;;;16.80;99.90;;;;;;2125306;27;20062;-75
2022/08/23 01:53:19;;;;;;;8.18;7.38;;;16.80;99.90;;;;;;2115817;28;20027;-75
2022/08/23 01:54:23;;;;;;;11.43;9.23;;;16.80;99.90;;;;;;2108363;28;20482;-76
2022/08/23 01:55:24;;;;;;;10.45;8.48;;;16.80;99.90;;;;;;2106176;28;20051;-75
2022/08/23 01:56:28;;;;;;;9.40;8.40;;;16.80;99.90;;;;;;2108064;28;20028;-75
2022/08/23 01:57:31;;;;;;;8.25;7.40;;;16.80;99.90;;;;;;2107914;28;20031;-73
2022/08/23 01:58:34;;;;;;;8.98;7.70;;;16.80;99.90;;;;;;2099207;28;20048;-75
2022/08/23 01:59:36;;;;;;;10.00;8.73;;;16.80;99.90;;;;;;2107439;28;20031;-76
2022/08/23 02:00:43;;;;;;;12.95;9.45;;;16.80;99.90;;;;;;2102871;28;20487;-76
2022/08/23 02:01:46;;;;;;;12.70;8.88;;;16.80;99.90;;;;;;2103550;28;20028;-74
2022/08/23 02:02:47;;;;;;;9.07;7.95;;;16.70;99.90;;;;;;2096760;28;20029;-75
2022/08/23 02:03:48;;;;;;;9.07;7.97;;;16.70;99.90;;;;;;2113158;28;20070;-75
2022/08/23 02:04:49;;;;;;;9.93;8.25;;;16.70;99.90;;;;;;2107213;28;20050;-74
2022/08/23 02:05:52;;;;;;;11.48;8.57;;;16.70;99.90;;;;;;2109446;28;20052;-73
2022/08/23 02:06:53;;;;;;;11.35;8.70;;;16.70;99.90;;;;;;2114309;28;20027;-73
2022/08/23 02:08:59;;;;;;;10.93;8.80;;;16.70;99.90;;;;;;2113776;28;20020;-74
2022/08/23 02:09:18;;;;;;;11.05;8.20;;;16.70;99.90;;;;;;2110333;28;20035;-74
2022/08/23 02:10:20;;;;;;;10.88;8.88;;;16.70;99.90;;;;;;2111554;28;20052;-74
2022/08/23 02:11:22;;;;;;;9.88;7.95;;;16.70;99.90;;;;;;2110930;28;20039;-74
2022/08/23 02:12:24;;;;;;;8.85;7.90;;;16.70;99.90;;;;;;2114999;28;20019;-74
2022/08/23 02:13:30;;;;;;;10.55;9.20;;;16.70;99.90;;;;;;2109481;28;20094;-74
2022/08/23 02:14:31;;;;;;;9.95;8.73;;;16.70;99.90;;;;;;2104901;28;20110;-74
2022/08/23 02:15:34;;;;;;;10.25;8.50;;;16.70;99.90;;;;;;2118376;28;20020;-76
2022/08/23 02:16:38;;;;;;;9.07;8.18;;;16.70;99.90;;;;;;2113966;28;20030;-74
2022/08/23 02:17:39;;;;;;;8.90;8.02;;;16.70;99.90;;;;;;2124363;27;20023;-72
2022/08/23 02:18:40;;;;;;;8.80;7.88;;;16.70;99.90;;;;;;2118485;28;20027;-75
2022/08/23 02:19:42;;;;;;;11.15;9.10;;;16.70;99.90;;;;;;2118207;28;20027;-74
2022/08/23 02:20:48;;;;;;;11.15;8.40;;;16.70;99.90;;;;;;2125442;27;20453;-75
2022/08/23 02:21:50;;;;;;;12.25;8.13;;;16.70;99.90;;;;;;2117054;28;20049;-74
2022/08/23 02:22:51;;;;;;;11.30;8.25;;;16.70;99.90;;;;;;2108201;28;20027;-74
2022/08/23 02:24:02;;;;;;;9.43;7.80;;;16.70;99.90;;;;;;2108771;28;20575;-75
2022/08/23 02:25:04;;;;;;;9.30;8.35;;;16.70;99.90;;;;;;2110475;28;20023;-75
2022/08/23 02:26:05;;;;;;;9.68;7.93;;;16.70;99.90;;;;;;2107672;28;20537;-74
2022/08/23 02:27:17;;;;;;;9.77;8.10;;;16.70;99.90;;;;;;2108177;28;20058;-76
2022/08/23 02:28:21;;;;;;;12.07;8.80;;;16.70;99.90;;;;;;2102427;28;20032;-75
2022/08/23 02:29:24;;;;;;;10.02;8.85;;;16.60;99.90;;;;;;2102579;28;20028;-76
2022/08/23 02:30:26;;;;;;;10.32;8.60;;;16.70;99.90;;;;;;2107313;28;20035;-75
2022/08/23 02:31:28;;;;;;;9.13;8.18;;;16.60;99.90;;;;;;2098639;28;20025;-73
2022/08/23 02:32:29;;;;;;;9.68;8.40;;;16.70;99.90;;;;;;2106746;28;20028;-74
2022/08/23 02:33:30;;;;;;;9.45;8.25;;;16.70;99.90;;;;;;2119592;27;20070;-74
2022/08/23 02:34:31;;;;;;;12.45;9.75;;;16.70;99.90;;;;;;2119138;27;20032;-74
2022/08/23 02:35:34;;;;;;;10.85;8.63;;;16.70;99.90;;;;;;2119354;27;20031;-74
2022/08/23 02:36:36;;;;;;;10.70;8.38;;;16.70;99.90;;;;;;2119911;27;20016;-74
2022/08/23 02:37:40;;;;;;;8.80;7.90;;;16.70;99.90;;;;;;2111783;28;20752;-73
2022/08/23 02:38:41;;;;;;;9.70;7.88;;;16.70;99.90;;;;;;2114676;28;20030;-74
2022/08/23 02:40:15;;;;;;;;;;;;;;;;;;;;;
2022/08/23 02:41:20;;;;;;;11.45;9.40;;;16.70;99.90;;;;;;2118857;27;20056;-72
2022/08/23 02:42:21;;;;;;;10.18;8.60;;;16.70;99.90;;;;;;2115722;28;20141;-74
2022/08/23 02:43:22;;;;;;;8.93;8.02;;;16.60;99.90;;;;;;2102544;28;20020;-75
2022/08/23 02:44:23;;;;;;;8.90;8.00;;;16.60;99.90;;;;;;2115179;28;20050;-76
2022/08/23 02:45:25;;;;;;;8.90;8.00;;;16.60;99.90;;;;;;2120221;27;20027;-74
2022/08/23 02:46:27;;;;;;;9.35;8.25;;;16.60;99.90;;;;;;2116974;28;20117;-75
2022/08/23 02:47:35;;;;;;;9.20;8.30;;;16.60;99.90;;;;;;2110130;28;20058;-75
2022/08/23 02:48:49;;;;;;;9.10;8.20;;;16.60;99.90;;;;;;2111312;28;20044;-74
2022/08/23 02:49:53;;;;;;;9.30;8.20;;;16.60;99.90;;;;;;2107912;28;20031;-74
2022/08/23 02:51:02;;;;;;;9.68;8.55;;;16.60;99.90;;;;;;2111319;28;20103;-76
2022/08/23 02:52:05;;;;;;;9.10;8.30;;;16.60;99.90;;;;;;2104825;28;20082;-76
2022/08/23 02:53:09;;;;;;;9.70;8.68;;;16.60;99.90;;;;;;2110893;28;20058;-74
2022/08/23 02:54:10;;;;;;;12.20;9.95;;;16.60;99.90;;;;;;2110600;28;20119;-72
2022/08/23 02:55:12;;;;;;;10.85;9.50;;;16.60;99.90;;;;;;2108413;28;20032;-75
2022/08/23 02:56:13;;;;;;;11.85;10.23;;;16.60;99.90;;;;;;2107765;28;20031;-74
2022/08/23 02:57:15;;;;;;;12.40;10.52;;;16.60;99.90;;;;;;2108498;27;20020;-74
2022/08/23 02:58:16;;;;;;;13.00;10.43;;;16.50;99.90;;;;;;2115850;28;20492;-75
2022/08/23 02:59:17;;;;;;;13.13;10.10;;;16.60;99.90;;;;;;2099034;28;20020;-75
2022/08/23 03:00:18;;;;;;;14.23;10.38;;;16.60;99.90;;;;;;2106878;28;20059;-74
2022/08/23 03:01:24;;;;;;;11.55;10.25;;;16.60;99.90;;;;;;2101755;28;20033;-73
2022/08/23 03:02:26;;;;;;;10.43;9.32;;;16.60;99.90;;;;;;2099396;28;20044;-74
2022/08/23 03:03:27;;;;;;;10.88;9.80;;;16.60;99.90;;;;;;2098771;28;20475;-74
2022/08/23 03:04:28;;;;;;;11.32;9.57;;;16.60;99.90;;;;;;2102329;28;20740;-73
2022/08/23 03:05:30;;;;;;;10.40;9.30;;;16.60;99.90;;;;;;2100401;28;20529;-73
2022/08/23 03:06:31;;;;;;;12.32;9.98;;;16.60;99.90;;;;;;2100424;28;20582;-75
2022/08/23 03:07:33;;;;;;;11.40;10.20;;;16.60;99.90;;;;;;2104043;28;20023;-74
2022/08/23 03:08:34;;;;;;;12.18;9.80;;;16.60;99.90;;;;;;2102910;28;20524;-73
2022/08/23 03:09:35;;;;;;;11.15;9.48;;;16.60;99.90;;;;;;2105824;28;20111;-75
2022/08/23 03:10:37;;;;;;;12.40;10.05;;;16.60;99.90;;;;;;2115536;28;20016;-75
2022/08/23 03:11:43;;;;;;;12.25;10.10;;;16.60;99.90;;;;;;2107613;28;20027;-74
2022/08/23 03:12:48;;;;;;;10.00;9.00;;;16.60;99.90;;;;;;2112057;27;20020;-73
2022/08/23 03:13:51;;;;;;;11.43;9.60;;;16.60;99.90;;;;;;2108848;28;20028;-74
2022/08/23 03:14:51;;;;;;;9.55;8.65;;;16.60;99.90;;;;;;2107254;28;20031;-73
2022/08/23 03:15:56;;;;;;;11.85;9.43;;;16.60;99.90;;;;;;2110445;28;20036;-74
2022/08/23 03:16:57;;;;;;;10.82;8.57;;;16.60;99.90;;;;;;2114155;28;20031;-73
2022/08/23 03:17:57;;;;;;;12.40;10.40;;;16.60;99.90;;;;;;2105677;28;20048;-74
2022/08/23 03:19:00;;;;;;;11.60;9.68;;;16.60;99.90;;;;;;2107283;28;20030;-73
2022/08/23 03:20:08;;;;;;;12.60;9.93;;;16.60;99.90;;;;;;2124175;27;20078;-73
2022/08/23 03:21:09;;;;;;;10.95;9.32;;;16.60;99.90;;;;;;2108266;28;20035;-74
2022/08/23 03:22:11;;;;;;;9.85;8.63;;;16.60;99.90;;;;;;2108580;28;20465;-74
2022/08/23 03:23:12;;;;;;;9.23;8.20;;;16.60;99.90;;;;;;2111430;28;20024;-74
2022/08/23 03:24:13;;;;;;;10.50;8.73;;;16.60;99.90;;;;;;2112318;28;20112;-75
2022/08/23 03:25:14;;;;;;;10.02;8.70;;;16.60;99.90;;;;;;2113814;28;20028;-75
2022/08/23 03:26:32;;;;;;;9.07;8.05;;;16.60;99.90;;;;;;2111665;28;20027;-74
2022/08/23 03:27:34;;;;;;;11.30;9.27;;;16.60;99.90;;;;;;2111972;28;20024;-75
2022/08/23 03:28:41;;;;;;;10.25;8.50;;;16.70;99.90;;;;;;2124122;27;20094;-74
2022/08/23 03:29:47;;;;;;;9.75;8.75;;;16.70;99.90;;;;;;2118169;27;20099;-76
2022/08/23 03:30:49;;;;;;;9.30;7.93;;;16.70;99.90;;;;;;2119162;27;20421;-76
2022/08/23 03:31:53;;;;;;;8.55;7.70;;;16.70;99.90;;;;;;2126595;27;20027;-76
2022/08/23 03:32:54;;;;;;;8.40;7.50;;;16.70;99.90;;;;;;2107554;28;20035;-76
2022/08/23 03:33:55;;;;;;;7.55;6.85;;;16.70;99.90;;;;;;2118508;27;20623;-76
2022/08/23 03:34:56;;;;;;;7.75;6.97;;;16.70;99.90;;;;;;2108316;28;20015;-77
2022/08/23 03:35:59;;;;;;;8.38;7.10;;;16.70;99.90;;;;;;2114763;27;20546;-76
2022/08/23 03:37:00;;;;;;;8.07;7.28;;;16.70;99.90;;;;;;2115954;27;20024;-76
2022/08/23 03:38:01;;;;;;;9.93;7.63;;;16.70;99.90;;;;;;2117462;28;20031;-76
2022/08/23 03:39:04;;;;;;;8.98;7.65;;;16.70;99.90;;;;;;2124367;27;20023;-74
2022/08/23 03:40:08;;;;;;;8.38;7.38;;;16.70;99.90;;;;;;2111686;28;20090;-75
2022/08/23 03:41:26;;;;;;;7.43;6.72;;;16.70;99.90;;;;;;2100106;28;20033;-77
2022/08/23 03:42:27;;;;;;;8.23;7.22;;;16.70;99.90;;;;;;2105748;28;20119;-76
2022/08/23 03:43:28;;;;;;;8.48;7.65;;;16.70;99.90;;;;;;2114886;27;20073;-75
2022/08/23 03:44:29;;;;;;;8.10;7.18;;;16.70;99.90;;;;;;2122324;27;20126;-75
2022/08/23 03:45:31;;;;;;;8.55;7.45;;;16.70;99.90;;;;;;2120441;27;20034;-75
2022/08/23 03:46:32;;;;;;;10.38;7.78;;;16.70;99.90;;;;;;2106269;27;20165;-75
2022/08/23 03:47:34;;;;;;;8.88;7.97;;;16.70;99.90;;;;;;2109064;28;20023;-75
2022/08/23 03:48:36;;;;;;;9.48;8.10;;;16.70;99.90;;;;;;2110037;28;20500;-76
2022/08/23 03:49:37;;;;;;;8.57;7.78;;;16.70;99.90;;;;;;2101341;28;20024;-74
2022/08/23 03:50:39;;;;;;;9.50;6.97;;;16.60;99.90;;;;;;2106116;28;20091;-75
2022/08/23 03:51:40;;;;;;;9.68;7.47;;;16.60;99.90;;;;;;2111568;27;20086;-75
2022/08/23 03:52:41;;;;;;;9.07;7.72;;;16.70;99.90;;;;;;2108552;27;20521;-75
2022/08/23 03:53:42;;;;;;;8.30;7.50;;;16.70;99.90;;;;;;2115513;28;20016;-75
2022/08/23 03:54:43;;;;;;;8.70;7.50;;;16.70;99.90;;;;;;2115391;28;20039;-74
2022/08/23 03:55:45;;;;;;;7.78;6.97;;;16.70;99.90;;;;;;2107204;28;20103;-73
2022/08/23 03:56:59;;;;;;;8.80;7.18;;;16.70;99.90;;;;;;2099830;28;20048;-73
2022/08/23 03:58:00;;;;;;;9.68;8.07;;;16.70;99.90;;;;;;2111042;27;20020;-74
2022/08/23 03:59:10;;;;;;;8.65;7.50;;;16.70;99.90;;;;;;2115496;28;20508;-73
2022/08/23 04:00:14;;;;;;;8.98;7.72;;;16.70;99.90;;;;;;2106567;28;20035;-74
2022/08/23 04:01:15;;;;;;;8.55;7.65;;;16.70;99.90;;;;;;2107943;28;20613;-75
2022/08/23 04:02:16;;;;;;;8.95;7.82;;;16.70;99.90;;;;;;2116176;28;20066;-74
2022/08/23 04:03:17;;;;;;;9.57;8.35;;;16.70;99.90;;;;;;2107508;28;20665;-74
2022/08/23 04:04:32;;;;;;;8.57;7.68;;;16.70;99.90;;;;;;2118356;27;20031;-75
2022/08/23 04:05:56;;;;;;;8.55;7.75;;;16.70;99.90;;;;;;2114522;27;20122;-77
2022/08/23 04:06:58;;;;;;;8.45;7.13;;;16.80;99.90;;;;;;2127487;27;20030;-76
2022/08/23 04:08:05;;;;;;;8.35;7.45;;;16.80;99.90;;;;;;2119328;27;20024;-75
2022/08/23 04:09:06;;;;;;;8.07;7.28;;;16.80;99.90;;;;;;2119275;27;20088;-76
2022/08/23 04:10:08;;;;;;;8.65;7.35;;;16.80;99.90;;;;;;2110481;28;20780;-76
2022/08/23 04:11:13;;;;;;;7.85;7.05;;;16.80;99.90;;;;;;2110158;27;20025;-75
2022/08/23 04:12:28;;;;;;;7.78;6.90;;;16.90;99.90;;;;;;2110439;28;20072;-77
2022/08/23 04:13:30;;;;;;;7.97;7.15;;;16.80;99.90;;;;;;2110894;27;20445;-76
2022/08/23 04:14:32;;;;;;;8.38;7.57;;;16.90;99.90;;;;;;2107695;28;20024;-78
2022/08/23 04:15:33;;;;;;;9.30;7.72;;;16.90;99.90;;;;;;2116091;27;20044;-78
2022/08/23 04:16:39;;;;;;;8.10;7.30;;;16.90;99.90;;;;;;2123987;27;20030;-76
2022/08/23 04:17:41;;;;;;;7.45;6.75;;;16.80;99.90;;;;;;2115658;27;20082;-75
2022/08/23 04:18:43;;;;;;;11.13;8.40;;;16.90;99.90;;;;;;2127419;27;20019;-77
2022/08/23 04:19:43;;;;;;;9.20;7.60;;;16.90;99.90;;;;;;2119404;28;20022;-78
2022/08/23 04:20:46;;;;;;;9.05;7.78;;;16.80;99.90;;;;;;2104301;28;20029;-77
2022/08/23 04:21:51;;;;;;;8.57;7.78;;;16.80;99.90;;;;;;2112361;28;20024;-79
2022/08/23 04:22:56;;;;;;;7.90;7.10;;;16.80;99.90;;;;;;2118852;28;20047;-78
2022/08/23 04:24:00;;;;;;;8.98;7.80;;;16.80;99.90;;;;;;2120957;28;20020;-78
2022/08/23 04:25:01;;;;;;;8.88;7.53;;;16.80;99.90;;;;;;2120179;28;20020;-78
2022/08/23 04:26:04;;;;;;;8.68;7.68;;;16.80;99.90;;;;;;2111567;28;20043;-77
2022/08/23 04:27:11;;;;;;;10.23;7.60;;;16.90;99.90;;;;;;2120792;27;20030;-77
2022/08/23 04:28:13;;;;;;;8.60;6.95;;;16.90;99.90;;;;;;2113482;28;20038;-79
2022/08/23 04:29:16;;;;;;;7.97;7.25;;;16.80;99.90;;;;;;2112782;28;20024;-78
2022/08/23 04:30:19;;;;;;;8.48;7.60;;;16.80;99.90;;;;;;2110228;28;20085;-78
2022/08/23 04:31:25;;;;;;;8.68;7.10;;;16.80;99.90;;;;;;2110664;28;20084;-78
2022/08/23 04:32:26;;;;;;;8.70;7.18;;;16.90;99.90;;;;;;2110853;28;20454;-78
2022/08/23 04:33:31;;;;;;;8.32;7.32;;;16.90;99.90;;;;;;2102641;28;20028;-79
2022/08/23 04:34:33;;;;;;;10.52;7.50;;;16.90;99.90;;;;;;2111130;28;20038;-79
2022/08/23 04:35:34;;;;;;;7.60;6.85;;;16.90;99.90;;;;;;2110756;27;20032;-78
2022/08/23 04:36:39;;;;;;;9.70;8.00;;;16.90;99.90;;;;;;2110276;28;20024;-78
2022/08/23 04:37:40;;;;;;;8.95;7.68;;;16.90;99.90;;;;;;2111635;28;20031;-79
2022/08/23 04:38:41;;;;;;;9.30;7.10;;;16.90;99.90;;;;;;2110998;28;20028;-79
2022/08/23 04:42:33;;;;;;;9.23;8.30;;;16.90;99.90;;;;;;2121925;27;20028;-78
2022/08/23 04:43:34;;;;;;;10.63;8.70;;;16.90;99.90;;;;;;2110417;28;20028;-77
2022/08/23 04:44:34;;;;;;;9.38;8.00;;;16.90;99.90;;;;;;2102459;28;20026;-78
2022/08/23 04:45:37;;;;;;;9.02;7.38;;;16.90;99.90;;;;;;2102483;28;20402;-78
2022/08/23 04:46:39;;;;;;;7.90;7.10;;;16.90;99.90;;;;;;2119223;28;20020;-77
2022/08/23 04:47:43;;;;;;;8.88;7.47;;;16.90;99.90;;;;;;2118068;28;20084;-77
2022/08/23 04:48:46;;;;;;;11.30;9.70;;;16.90;99.90;;;;;;2110371;28;20024;-78
2022/08/23 04:49:46;;;;;;;12.75;9.70;;;16.90;99.90;;;;;;2109753;28;20020;-79
2022/08/23 04:50:48;;;;;;;10.60;9.02;;;16.90;99.90;;;;;;2109355;28;20024;-77
2022/08/23 04:51:52;;;;;;;11.00;9.65;;;16.90;99.90;;;;;;2110389;28;20024;-79
2022/08/23 04:52:52;;;;;;;11.05;9.07;;;16.90;99.90;;;;;;2104716;28;20039;-77
2022/08/23 04:53:54;;;;;;;12.32;9.38;;;16.80;99.90;;;;;;2118692;28;20020;-79
2022/08/23 04:55:14;;;;;;;15.23;9.70;;;16.80;99.90;;;;;;2127214;27;20043;-78
2022/08/23 04:56:24;;;;;;;13.20;9.68;;;16.90;99.90;;;;;;2126679;27;20027;-79
2022/08/23 04:57:26;;;;;;;10.70;9.00;;;16.80;99.90;;;;;;2110792;28;20028;-78
2022/08/23 04:58:28;;;;;;;11.38;9.18;;;16.90;99.90;;;;;;2109855;28;20032;-78
2022/08/23 04:59:29;;;;;;;10.57;8.75;;;16.80;99.90;;;;;;2110181;27;20027;-79
2022/08/23 05:00:30;;;;;;;9.93;8.18;;;16.90;99.90;;;;;;2109219;28;20020;-79
2022/08/23 05:01:33;;;;;;;8.30;7.50;;;16.90;99.90;;;;;;2109251;27;20067;-79
2022/08/23 05:02:34;;;;;;;11.20;8.85;;;16.90;99.90;;;;;;2108811;28;20024;-80
2022/08/23 05:03:36;;;;;;;8.88;7.93;;;17.00;99.90;;;;;;2108815;28;20391;-79
2022/08/23 05:04:37;;;;;;;8.90;7.78;;;17.00;99.90;;;;;;2109258;28;20097;-79
2022/08/23 05:05:40;;;;;;;8.07;7.25;;;17.00;99.90;;;;;;2126123;27;20548;-79
2022/08/23 05:06:41;;;;;;;8.32;7.07;;;17.00;99.90;;;;;;2118205;28;20032;-78
2022/08/23 05:07:42;;;;;;;8.00;7.20;;;17.00;99.90;;;;;;2117896;28;20107;-80
2022/08/23 05:08:43;;;;;;;11.70;8.57;;;17.00;99.90;;;;;;2109243;28;20039;-79
2022/08/23 05:09:44;;;;;;;10.77;9.23;;;17.00;99.90;;;;;;2117998;28;20035;-79
2022/08/23 05:10:47;;;;;;;10.57;8.43;;;17.00;99.90;;;;;;2117817;27;20020;-79
2022/08/23 05:11:48;;;;;;;8.63;7.75;;;17.00;99.90;;;;;;2119057;28;20024;-77
2022/08/23 05:12:48;;;;;;;10.00;8.77;;;17.00;99.90;;;;;;2110569;28;20043;-80
2022/08/23 05:13:51;;;;;;;11.07;9.10;;;17.10;99.90;;;;;;2102195;28;20046;-77
2022/08/23 05:14:53;;;;;;;10.40;9.07;;;17.10;99.90;;;;;;2101479;28;20126;-77
2022/08/23 05:15:54;;;;;;;12.70;9.00;;;17.10;99.90;;;;;;2098623;28;20028;-76
2022/08/23 05:16:58;;;;;;;9.55;8.57;;;17.10;99.90;;;;;;2108921;27;20107;-77
2022/08/23 05:17:59;;;;;;;8.63;7.82;;;17.10;99.90;;;;;;2106973;28;20013;-77
2022/08/23 05:19:01;;;;;;;8.38;7.43;;;17.10;99.90;;;;;;2106222;28;20486;-77
2022/08/23 05:20:07;;;;;;;9.25;7.72;;;17.10;99.90;;;;;;2114283;28;20047;-76
2022/08/23 05:21:14;;;;;;;12.50;9.73;;;17.20;99.90;;;;;;2106760;27;20367;-77
2022/08/23 05:22:15;;;;;;;10.88;8.73;;;17.20;99.90;;;;;;2114409;28;20019;-77
2022/08/23 05:23:36;;;;;;;10.55;7.90;;;17.20;99.90;;;;;;2116596;27;20077;-77
2022/08/23 05:24:41;;;;;;;10.52;8.27;;;17.20;99.90;;;;;;2117600;27;20023;-76
2022/08/23 05:25:48;;;;;;;8.68;6.68;;;17.20;99.90;;;;;;2105556;28;20068;-77
2022/08/23 05:26:51;;;;;;;10.70;9.18;;;17.20;99.90;;;;;;2107962;27;20062;-77
2022/08/23 05:27:55;;;;;;;8.90;7.97;;;17.20;99.90;;;;;;2114092;28;20777;-77
2022/08/23 05:28:56;;;;;;;9.73;8.05;;;17.20;99.90;;;;;;2122681;27;20020;-78
2022/08/23 05:30:04;;;;;;;10.18;8.23;;;17.20;99.90;;;;;;2114349;27;20024;-77
2022/08/23 05:31:12;;;;;;;9.65;7.93;;;17.20;99.90;;;;;;2116295;28;20030;-79
2022/08/23 05:32:18;;;;;;;8.00;6.97;;;17.20;99.90;;;;;;2116934;28;20063;-79
2022/08/23 05:33:20;;;;;;;8.05;7.25;;;17.20;99.90;;;;;;2116227;28;20225;-79
2022/08/23 05:34:21;;;;;;;8.07;6.90;;;17.30;99.90;;;;;;2106892;28;20466;-76
2022/08/23 05:35:26;;;;;;;11.40;7.97;;;17.30;99.90;;;;;;2115480;27;20048;-77
2022/08/23 05:36:27;;;;;;;7.82;7.00;;;17.30;99.90;;;;;;2122312;27;20027;-77
2022/08/23 05:37:27;;;;;;;9.95;8.07;;;17.30;99.90;;;;;;2124134;27;20058;-77
2022/08/23 05:38:30;;;;;;;9.73;7.80;;;17.30;99.90;;;;;;2114912;28;20046;-78
2022/08/23 05:39:32;;;;;;;8.70;7.40;;;17.30;99.90;;;;;;2108555;27;20117;-78